Time;durP1;ratioP1;P1;durP2;ratioP2;P2;SDS_P1;SDS_P2;PMS_P1;PMS_P2;Temp;Humidity;BMP_temperature;BMP_pressure;BME280_temperature;BME280_humidity;BME280_pressure;Samples;Min_cycle;Max_cycle;Signal;HPM_P1;HPM_P2
2021/08/04 00:00:26;;;;;;;8.43;6.32;;;;;;;;;;6216911;23;20031;-49
2021/08/04 00:02:52;;;;;;;14.18;7.22;;;;;;;;;;6217095;23;20472;-48
2021/08/04 00:05:18;;;;;;;12.70;6.75;;;;;;;;;;6216727;23;20004;-48
2021/08/04 00:07:44;;;;;;;9.73;6.63;;;;;;;;;;6217454;23;20005;-49
2021/08/04 00:10:11;;;;;;;8.73;7.00;;;22.70;99.90;;;;;;6216983;23;20039;-49
2021/08/04 00:12:36;;;;;;;11.27;6.95;;;22.70;99.70;;;;;;6189777;23;20004;-48
2021/08/04 00:15:03;;;;;;;11.48;7.43;;;22.60;99.40;;;;;;6216462;23;20054;-49
2021/08/04 00:17:30;;;;;;;10.95;6.53;;;22.70;99.30;;;;;;6158698;23;20092;-50
2021/08/04 00:19:56;;;;;;;13.90;6.90;;;22.70;99.30;;;;;;6184081;23;20013;-49
2021/08/04 00:22:21;;;;;;;15.10;6.95;;;22.60;99.10;;;;;;6158962;23;20085;-49
2021/08/04 00:24:47;;;;;;;10.40;6.25;;;22.60;99.20;;;;;;6184241;23;20020;-48
2021/08/04 00:27:13;;;;;;;9.70;7.25;;;22.50;99.30;;;;;;6184092;23;20005;-49
2021/08/04 00:29:39;;;;;;;10.07;6.63;;;22.50;92.80;;;;;;6133902;23;20405;-48
2021/08/04 00:32:05;;;;;;;12.80;6.72;;;22.40;94.10;;;;;;6134230;23;20036;-48
2021/08/04 00:34:30;;;;;;;11.35;6.65;;;22.30;85.40;;;;;;6184038;23;20055;-50
2021/08/04 00:36:56;;;;;;;10.25;7.30;;;22.30;86.10;;;;;;6133291;23;20137;-48
2021/08/04 00:39:22;;;;;;;11.68;6.80;;;22.20;85.70;;;;;;6183703;23;20046;-49
2021/08/04 00:41:49;;;;;;;11.45;7.70;;;22.30;85.70;;;;;;6183640;23;20043;-49
2021/08/04 00:44:14;;;;;;;10.30;6.80;;;22.30;85.50;;;;;;6182986;23;20005;-49
2021/08/04 00:46:42;;;;;;;9.80;7.43;;;22.30;85.50;;;;;;6183468;23;20005;-50
2021/08/04 00:49:11;;;;;;;12.60;6.95;;;22.30;85.70;;;;;;6208948;23;20478;-49
2021/08/04 00:51:37;;;;;;;25.00;15.75;;;22.30;85.70;;;;;;6216234;23;20556;-49
2021/08/04 00:54:07;;;;;;;27.20;18.05;;;22.20;85.90;;;;;;6216828;23;20004;-48
2021/08/04 00:56:36;;;;;;;30.75;24.45;;;22.20;86.10;;;;;;6216518;23;20008;-50
2021/08/04 00:59:04;;;;;;;30.45;23.35;;;22.10;86.60;;;;;;6188560;23;20019;-49
2021/08/04 01:01:39;;;;;;;31.67;22.27;;;22.00;86.70;;;;;;6214652;23;20015;-48
2021/08/04 01:04:23;;;;;;;23.35;19.55;;;22.10;86.50;;;;;;6217350;23;20000;-49
2021/08/04 01:07:27;;;;;;;20.50;17.40;;;22.20;86.30;;;;;;6215888;23;20013;-49
2021/08/04 01:10:00;;;;;;;20.35;17.27;;;22.10;86.30;;;;;;6153919;23;20014;-49
2021/08/04 01:12:33;;;;;;;19.35;14.88;;;22.10;86.70;;;;;;6154029;23;20040;-49
2021/08/04 01:15:05;;;;;;;16.52;11.82;;;22.10;86.60;;;;;;6153635;23;20029;-49
2021/08/04 01:17:32;;;;;;;16.02;9.93;;;22.20;86.30;;;;;;6080392;23;20374;-49
2021/08/04 01:20:14;;;;;;;13.93;9.60;;;22.30;86.20;;;;;;6153647;23;20064;-48
2021/08/04 01:22:58;;;;;;;;;;;22.40;86.00;;;;;;6129984;23;20056;-49
2021/08/04 01:25:31;;;;;;;14.02;7.90;;;22.40;85.80;;;;;;6153992;23;19924;-49
2021/08/04 01:28:24;;;;;;;14.30;8.48;;;22.50;85.80;;;;;;6153610;23;20076;-49
2021/08/04 01:30:52;;;;;;;14.95;7.75;;;22.50;85.60;;;;;;6129458;23;20009;-49
2021/08/04 01:33:20;;;;;;;11.52;7.72;;;22.50;85.50;;;;;;6153492;23;20009;-49
2021/08/04 01:35:47;;;;;;;11.40;7.95;;;22.50;85.60;;;;;;6153089;23;20005;-49
2021/08/04 01:38:16;;;;;;;14.18;8.48;;;22.40;85.70;;;;;;6128948;23;20096;-49
2021/08/04 01:40:44;;;;;;;12.30;7.57;;;22.20;86.60;;;;;;6153876;23;20037;-48
2021/08/04 01:43:11;;;;;;;12.35;7.85;;;22.00;87.30;;;;;;6153625;23;20037;-49
2021/08/04 01:45:39;;;;;;;12.73;7.18;;;22.00;87.20;;;;;;6158947;23;20369;-49
2021/08/04 01:48:06;;;;;;;12.82;7.90;;;22.10;87.20;;;;;;6216356;23;20013;-49
2021/08/04 01:50:34;;;;;;;13.18;7.85;;;22.10;87.30;;;;;;6215821;23;20063;-49
2021/08/04 01:53:00;;;;;;;11.73;8.25;;;22.10;87.30;;;;;;6216545;23;20008;-49
2021/08/04 01:55:26;;;;;;;11.85;8.52;;;22.10;87.20;;;;;;6216649;23;20009;-49
2021/08/04 01:57:52;;;;;;;14.95;8.30;;;22.00;87.40;;;;;;6215417;23;20143;-50
2021/08/04 02:00:17;;;;;;;15.85;8.35;;;22.00;87.80;;;;;;6215279;23;20008;-49
2021/08/04 02:02:46;;;;;;;15.18;8.30;;;21.90;88.10;;;;;;6215262;23;20009;-49
2021/08/04 02:05:13;;;;;;;16.00;8.45;;;21.90;88.00;;;;;;6089469;23;20024;-49
2021/08/04 02:07:50;;;;;;;13.75;8.02;;;21.80;88.30;;;;;;6216742;23;20083;-50
2021/08/04 02:10:23;;;;;;;12.77;8.60;;;21.80;88.30;;;;;;6217295;23;20008;-48
2021/08/04 02:12:58;;;;;;;11.40;8.32;;;21.70;89.00;;;;;;6217244;23;20008;-49
2021/08/04 02:15:27;;;;;;;12.32;8.52;;;21.50;89.30;;;;;;6217640;23;20005;-50
2021/08/04 02:18:03;;;;;;;13.60;8.35;;;21.70;89.20;;;;;;6217709;23;20005;-51
2021/08/04 02:20:38;;;;;;;13.10;7.88;;;21.70;88.90;;;;;;6217645;23;20016;-50
2021/08/04 02:23:15;;;;;;;11.25;8.68;;;21.60;89.00;;;;;;6218267;23;20098;-50
2021/08/04 02:25:53;;;;;;;18.33;8.50;;;21.60;89.30;;;;;;6217721;23;20001;-50
2021/08/04 02:28:26;;;;;;;11.93;8.00;;;21.40;89.80;;;;;;6217478;23;20047;-49
2021/08/04 02:30:53;;;;;;;15.50;8.80;;;21.40;90.00;;;;;;6217810;23;20440;-48
2021/08/04 02:33:20;;;;;;;12.95;8.40;;;21.30;90.20;;;;;;6217837;23;20011;-49
2021/08/04 02:35:46;;;;;;;11.00;8.48;;;;;;;;;;6216978;23;20004;-48
2021/08/04 02:38:16;;;;;;;15.98;8.27;;;20.90;90.80;;;;;;6217738;23;20095;-49
2021/08/04 02:40:43;;;;;;;11.88;8.25;;;20.80;91.40;;;;;;6218024;23;20424;-48
2021/08/04 02:43:10;;;;;;;11.48;8.02;;;20.70;91.60;;;;;;6164542;23;20012;-48
2021/08/04 02:45:36;;;;;;;11.32;8.40;;;20.60;91.80;;;;;;6217515;23;20066;-50
2021/08/04 02:48:03;;;;;;;10.18;8.38;;;20.70;91.80;;;;;;6217748;23;20008;-49
2021/08/04 02:50:31;;;;;;;10.30;8.77;;;20.70;91.90;;;;;;6189780;23;20012;-49
2021/08/04 02:52:57;;;;;;;15.23;8.80;;;20.70;91.90;;;;;;6217499;23;20336;-49
2021/08/04 02:55:23;;;;;;;13.65;8.32;;;20.80;91.70;;;;;;6217857;23;20062;-49
2021/08/04 02:57:49;;;;;;;14.95;8.77;;;20.90;91.60;;;;;;6190225;23;20011;-49
2021/08/04 03:00:15;;;;;;;11.80;8.23;;;20.80;91.70;;;;;;6217373;23;20325;-50
2021/08/04 03:02:41;;;;;;;15.43;8.40;;;20.90;91.70;;;;;;6190231;23;20020;-49
2021/08/04 03:05:07;;;;;;;13.10;8.00;;;21.00;91.60;;;;;;6216539;23;20013;-49
2021/08/04 03:07:33;;;;;;;14.23;7.88;;;21.10;91.30;;;;;;6188802;23;20016;-49
2021/08/04 03:09:59;;;;;;;11.43;8.05;;;21.30;91.00;;;;;;6164594;23;20035;-49
2021/08/04 03:12:25;;;;;;;12.25;8.23;;;21.30;90.90;;;;;;6216222;23;20012;-50
2021/08/04 03:14:51;;;;;;;12.40;8.52;;;21.20;91.00;;;;;;6216899;23;20016;-49
2021/08/04 03:17:16;;;;;;;13.20;8.57;;;21.30;90.80;;;;;;6164937;23;20008;-49
2021/08/04 03:19:42;;;;;;;12.63;8.15;;;21.40;90.80;;;;;;6216637;23;20023;-48
2021/08/04 03:22:08;;;;;;;11.05;8.00;;;21.40;90.50;;;;;;6164828;23;20059;-48
2021/08/04 03:24:34;;;;;;;16.20;8.65;;;21.50;90.50;;;;;;6217727;23;20011;-49
2021/08/04 03:27:00;;;;;;;13.75;8.15;;;21.50;90.50;;;;;;6216941;23;20005;-48
2021/08/04 03:29:25;;;;;;;11.70;7.57;;;21.50;90.40;;;;;;6164981;23;20008;-49
2021/08/04 03:31:51;;;;;;;11.07;7.63;;;21.40;90.50;;;;;;6191461;23;20005;-49
2021/08/04 03:34:17;;;;;;;12.75;8.38;;;21.30;90.80;;;;;;6189879;23;20425;-49
2021/08/04 03:36:43;;;;;;;20.60;9.13;;;21.30;90.80;;;;;;6217193;23;20032;-48
2021/08/04 03:39:08;;;;;;;14.68;7.82;;;21.30;90.80;;;;;;6217661;23;20365;-49
2021/08/04 03:41:34;;;;;;;12.70;7.90;;;21.20;90.90;;;;;;6164791;23;20137;-48
2021/08/04 03:44:00;;;;;;;12.05;7.88;;;21.20;90.90;;;;;;6217363;23;20013;-48
2021/08/04 03:46:26;;;;;;;13.88;8.35;;;21.20;90.90;;;;;;6217458;23;20013;-48
2021/08/04 03:48:51;;;;;;;13.65;7.93;;;21.20;91.00;;;;;;6189643;23;20083;-49
2021/08/04 03:51:17;;;;;;;16.17;8.00;;;21.30;90.90;;;;;;6217237;23;20016;-48
2021/08/04 03:53:43;;;;;;;11.60;8.60;;;21.30;90.90;;;;;;6217246;23;20424;-49
2021/08/04 03:56:09;;;;;;;12.80;7.55;;;21.20;91.10;;;;;;6216722;23;20043;-48
2021/08/04 03:58:34;;;;;;;10.85;7.97;;;21.20;91.10;;;;;;6216985;23;20108;-48
2021/08/04 04:01:00;;;;;;;14.18;7.30;;;21.20;91.10;;;;;;6216990;23;20051;-48
2021/08/04 04:03:26;;;;;;;15.38;8.73;;;21.30;91.00;;;;;;6189519;23;20365;-48
2021/08/04 04:05:51;;;;;;;16.25;8.55;;;21.30;90.80;;;;;;6217316;23;20429;-47
2021/08/04 04:08:17;;;;;;;16.35;8.20;;;21.20;91.00;;;;;;6216971;23;20008;-47
2021/08/04 04:10:43;;;;;;;11.73;8.13;;;21.40;90.90;;;;;;6163972;23;20008;-48
2021/08/04 04:13:10;;;;;;;10.20;7.65;;;21.40;90.70;;;;;;6216389;23;20069;-48
2021/08/04 04:15:36;;;;;;;12.07;8.55;;;21.40;90.70;;;;;;6164064;23;20008;-48
2021/08/04 04:18:01;;;;;;;14.02;8.32;;;21.40;90.70;;;;;;6217045;23;20012;-48
2021/08/04 04:20:27;;;;;;;10.93;7.50;;;21.50;90.60;;;;;;6216683;23;20012;-48
2021/08/04 04:22:53;;;;;;;10.18;8.32;;;21.50;90.70;;;;;;6189378;23;20020;-47
2021/08/04 04:25:21;;;;;;;9.57;7.72;;;21.60;90.70;;;;;;6188676;23;20008;-49
2021/08/04 04:27:47;;;;;;;13.50;7.88;;;21.70;90.60;;;;;;6217027;23;20004;-48
2021/08/04 04:30:12;;;;;;;16.17;8.73;;;21.70;90.70;;;;;;6216609;23;20502;-50
2021/08/04 04:32:38;;;;;;;10.85;8.77;;;21.60;91.10;;;;;;6216838;23;20019;-49
2021/08/04 04:35:05;;;;;;;14.15;8.60;;;21.50;91.20;;;;;;6216721;23;20040;-49
2021/08/04 04:37:31;;;;;;;11.27;8.45;;;21.50;91.30;;;;;;6189203;23;20070;-49
2021/08/04 04:39:57;;;;;;;12.18;8.35;;;21.60;91.30;;;;;;6216429;23;20021;-48
2021/08/04 04:42:23;;;;;;;10.60;7.70;;;21.50;91.60;;;;;;6216690;23;20043;-48
2021/08/04 04:44:49;;;;;;;9.98;7.72;;;21.50;91.70;;;;;;6217002;23;20063;-48
2021/08/04 04:47:15;;;;;;;12.75;8.60;;;21.50;91.90;;;;;;6216897;23;20039;-48
2021/08/04 04:49:40;;;;;;;8.90;7.20;;;21.60;92.00;;;;;;6215471;23;20088;-49
2021/08/04 04:52:07;;;;;;;8.98;7.35;;;21.50;92.10;;;;;;6216004;23;20059;-48
2021/08/04 04:54:32;;;;;;;9.60;7.97;;;21.20;92.40;;;;;;6163940;23;20578;-48
2021/08/04 04:56:58;;;;;;;13.63;8.40;;;21.30;92.60;;;;;;6216073;23;20032;-48
2021/08/04 04:59:24;;;;;;;11.75;7.85;;;21.40;92.60;;;;;;6183211;23;20539;-49
2021/08/04 05:01:50;;;;;;;10.57;7.65;;;21.40;92.50;;;;;;6183181;23;20013;-49
2021/08/04 05:04:16;;;;;;;9.75;7.18;;;21.50;92.50;;;;;;6133007;23;20330;-49
2021/08/04 05:06:42;;;;;;;11.63;7.30;;;21.60;92.40;;;;;;6133895;23;20381;-49
2021/08/04 05:09:07;;;;;;;10.98;7.38;;;21.60;92.40;;;;;;6158113;23;20013;-48
2021/08/04 05:11:33;;;;;;;9.80;7.22;;;21.70;92.50;;;;;;6182953;23;20016;-48
2021/08/04 05:13:59;;;;;;;9.20;7.82;;;21.80;92.40;;;;;;6133273;23;20028;-48
2021/08/04 05:16:26;;;;;;;9.60;7.03;;;21.90;92.10;;;;;;6133689;23;20059;-48
2021/08/04 05:18:52;;;;;;;9.93;6.78;;;22.00;92.00;;;;;;6183260;23;20016;-48
2021/08/04 05:21:18;;;;;;;14.15;7.30;;;22.00;92.10;;;;;;6183805;23;20306;-48
2021/08/04 05:23:43;;;;;;;9.50;5.95;;;22.10;92.00;;;;;;6134003;23;20043;-47
2021/08/04 05:26:09;;;;;;;13.82;6.70;;;22.20;91.40;;;;;;6183242;23;20052;-47
2021/08/04 05:28:35;;;;;;;9.57;5.85;;;22.40;96.70;;;;;;6183510;23;20001;-47
2021/08/04 05:31:01;;;;;;;10.13;6.53;;;22.40;95.10;;;;;;6139008;23;20024;-48
2021/08/04 05:33:26;;;;;;;12.88;7.32;;;22.30;95.20;;;;;;6216745;23;20011;-48
2021/08/04 05:35:52;;;;;;;9.43;6.70;;;22.40;94.70;;;;;;6188557;23;20004;-47
2021/08/04 05:38:18;;;;;;;12.00;6.82;;;22.60;94.70;;;;;;6188557;23;20008;-47
2021/08/04 05:40:44;;;;;;;11.57;7.80;;;22.60;94.80;;;;;;6216320;23;20027;-48
2021/08/04 05:43:09;;;;;;;16.75;10.60;;;22.60;95.40;;;;;;6187806;23;20075;-47
2021/08/04 05:45:37;;;;;;;15.48;8.95;;;22.70;96.10;;;;;;6213785;23;20491;-47
2021/08/04 05:48:04;;;;;;;14.00;7.75;;;;;;;;;;6216181;23;20032;-47
2021/08/04 05:50:30;;;;;;;11.32;7.70;;;22.70;91.20;;;;;;6188923;23;20483;-47
2021/08/04 05:52:56;;;;;;;13.77;8.25;;;22.90;91.10;;;;;;6217083;23;20012;-47
2021/08/04 05:55:21;;;;;;;14.05;7.18;;;23.10;91.90;;;;;;6216454;23;20055;-47
2021/08/04 05:57:48;;;;;;;12.00;7.38;;;23.10;95.00;;;;;;6216114;23;20310;-48
2021/08/04 06:00:14;;;;;;;12.15;6.72;;;23.00;90.80;;;;;;6215878;23;20048;-48
2021/08/04 06:02:40;;;;;;;12.70;7.65;;;;;;;;;;6215934;23;20000;-48
2021/08/04 06:05:06;;;;;;;10.63;6.30;;;;;;;;;;6216112;23;20015;-47
2021/08/04 06:07:32;;;;;;;10.65;6.90;;;22.80;99.90;;;;;;6188894;23;20001;-47
2021/08/04 06:09:58;;;;;;;9.45;6.43;;;23.50;90.70;;;;;;6163544;23;20147;-47
2021/08/04 06:12:23;;;;;;;10.30;6.90;;;23.50;90.20;;;;;;6216106;23;20416;-47
2021/08/04 06:28:02;;;;;;;12.43;6.63;;;24.10;89.10;;;;;;4999198;28;20466;-48
2021/08/04 06:42:14;;;;;;;9.43;6.38;;;24.40;86.90;;;;;;5154686;27;20367;-48
2021/08/04 06:44:40;;;;;;;8.52;6.20;;;;;;;;;;5156291;27;20029;-47
2021/08/04 06:47:07;;;;;;;7.20;6.03;;;;;;;;;;5152489;27;20121;-47
2021/08/04 06:49:32;;;;;;;11.50;6.45;;;24.60;85.10;;;;;;5147114;27;20023;-47
2021/08/04 06:51:59;;;;;;;10.00;6.72;;;;;;;;;;5111446;27;20083;-46
2021/08/04 06:54:25;;;;;;;11.35;6.53;;;24.90;85.10;;;;;;5152225;27;20161;-47
2021/08/04 06:56:51;;;;;;;9.70;6.07;;;;;;;;;;5056145;27;20043;-48
2021/08/04 06:59:17;;;;;;;12.82;6.35;;;25.20;88.20;;;;;;5151104;27;20018;-49
2021/08/04 07:01:45;;;;;;;9.50;5.65;;;25.20;84.40;;;;;;5151864;27;20339;-47
2021/08/04 07:04:11;;;;;;;10.68;5.88;;;;;;;;;;5117699;27;20042;-46
2021/08/04 07:06:37;;;;;;;13.57;6.47;;;;;;;;;;5119856;27;20065;-47
2021/08/04 07:09:03;;;;;;;13.38;6.18;;;;;;;;;;5101654;27;20164;-47
2021/08/04 07:11:30;;;;;;;12.73;6.63;;;;;;;;;;5101263;27;20039;-46
2021/08/04 07:14:00;;;;;;;9.70;6.15;;;;;;;;;;5102288;27;20046;-48
2021/08/04 07:16:25;;;;;;;10.38;6.22;;;26.00;91.30;;;;;;5152292;27;20035;-48
2021/08/04 07:18:51;;;;;;;10.75;6.60;;;26.00;81.10;;;;;;5114447;27;20057;-46
2021/08/04 07:21:17;;;;;;;14.27;6.78;;;26.00;79.80;;;;;;5151106;27;20034;-46
2021/08/04 07:23:46;;;;;;;10.20;6.15;;;26.30;79.10;;;;;;5150805;27;20035;-47
2021/08/04 07:26:13;;;;;;;10.02;5.90;;;26.30;81.50;;;;;;5148525;27;20023;-48
2021/08/04 07:28:41;;;;;;;10.85;5.55;;;;;;;;;;5144393;27;20027;-48
2021/08/04 07:31:07;;;;;;;15.25;5.55;;;;;;;;;;5147149;27;20067;-48
2021/08/04 07:33:34;;;;;;;9.52;5.53;;;;;;;;;;5147495;27;20023;-49
2021/08/04 07:36:00;;;;;;;7.57;5.20;;;;;;;;;;5115642;27;20039;-50
2021/08/04 07:38:26;;;;;;;11.88;6.57;;;;;;;;;;5146142;27;20019;-50
2021/08/04 07:40:52;;;;;;;8.52;5.32;;;;;;;;;;5100559;28;20039;-51
2021/08/04 07:43:19;;;;;;;16.77;6.35;;;;;;;;;;5115337;27;20039;-49
2021/08/04 07:45:45;;;;;;;7.82;4.97;;;;;;;;;;5117271;27;20098;-49
2021/08/04 07:48:11;;;;;;;8.25;4.88;;;27.60;74.40;;;;;;5117790;27;20110;-48
2021/08/04 07:50:37;;;;;;;8.88;5.55;;;27.70;72.70;;;;;;5120208;27;20154;-48
2021/08/04 07:53:03;;;;;;;9.43;5.70;;;;;;;;;;5121361;27;20466;-49
2021/08/04 07:55:29;;;;;;;7.53;5.32;;;28.00;72.50;;;;;;5116639;27;20114;-49
2021/08/04 07:57:54;;;;;;;11.00;5.55;;;27.90;71.60;;;;;;5089710;27;20115;-50
2021/08/04 08:00:20;;;;;;;7.20;5.10;;;27.90;71.30;;;;;;5054931;27;20055;-48
2021/08/04 08:02:46;;;;;;;6.22;4.57;;;28.10;71.90;;;;;;5120084;27;20328;-50
2021/08/04 08:05:12;;;;;;;5.93;4.82;;;28.30;70.20;;;;;;5068264;28;20032;-48
2021/08/04 08:07:44;;;;;;;10.05;4.93;;;28.40;69.40;;;;;;5117804;27;20024;-49
2021/08/04 08:10:10;;;;;;;7.38;4.38;;;28.40;68.30;;;;;;5062920;28;20051;-49
2021/08/04 08:12:36;;;;;;;6.55;4.88;;;28.40;68.30;;;;;;5096386;27;20465;-49
2021/08/04 08:15:02;;;;;;;8.18;4.88;;;;;;;;;;5121174;27;20023;-47
2021/08/04 08:17:28;;;;;;;8.80;5.25;;;28.70;66.10;;;;;;5067202;27;20051;-48
2021/08/04 08:19:54;;;;;;;5.50;4.80;;;28.90;67.30;;;;;;5121237;27;20023;-49
2021/08/04 08:22:20;;;;;;;10.43;5.70;;;29.10;66.70;;;;;;5069109;27;20039;-50
2021/08/04 08:24:46;;;;;;;7.50;4.75;;;;;;;;;;5095871;28;20036;-50
2021/08/04 08:27:12;;;;;;;7.63;4.72;;;29.30;65.20;;;;;;5117559;27;20070;-50
2021/08/04 08:29:38;;;;;;;11.25;4.97;;;29.40;66.40;;;;;;5067526;28;20044;-50
2021/08/04 08:32:04;;;;;;;6.95;4.60;;;29.60;66.50;;;;;;5122026;27;20519;-48
2021/08/04 08:34:30;;;;;;;7.45;4.80;;;29.40;64.80;;;;;;5064378;28;20039;-49
2021/08/04 08:40:24;;;;;;;7.07;5.28;;;29.40;66.00;;;;;;5120570;27;20521;-48
2021/08/04 08:42:50;;;;;;;7.43;4.38;;;;;;;;;;5085678;27;20142;-48
2021/08/04 08:45:16;;;;;;;13.02;5.43;;;30.00;65.30;;;;;;5137879;27;20033;-48
2021/08/04 08:47:43;;;;;;;5.90;4.20;;;29.90;65.10;;;;;;5137717;27;20423;-48
2021/08/04 08:50:10;;;;;;;7.03;4.13;;;30.20;66.20;;;;;;5115898;27;20500;-50
2021/08/04 08:52:36;;;;;;;8.40;4.50;;;30.30;65.00;;;;;;5134329;27;20034;-50
2021/08/04 08:55:03;;;;;;;9.73;4.68;;;30.40;66.00;;;;;;5135664;27;20031;-48
2021/08/04 08:57:30;;;;;;;8.18;4.43;;;30.90;64.70;;;;;;5099782;27;20068;-50
2021/08/04 08:59:57;;;;;;;6.65;4.50;;;30.80;63.90;;;;;;5134709;27;20046;-49
2021/08/04 09:02:26;;;;;;;6.50;3.55;;;31.20;64.40;;;;;;5133145;27;20505;-48
2021/08/04 09:05:04;;;;;;;9.00;3.95;;;31.30;63.10;;;;;;5132453;27;20054;-48
2021/08/04 09:07:34;;;;;;;6.90;4.03;;;31.40;63.40;;;;;;5115435;27;20038;-48
2021/08/04 09:10:18;;;;;;;6.10;3.97;;;31.20;62.10;;;;;;5141171;27;20035;-48
2021/08/04 09:12:48;;;;;;;7.40;3.45;;;31.30;62.50;;;;;;5136484;27;20031;-48
2021/08/04 09:15:28;;;;;;;7.28;3.60;;;31.50;61.90;;;;;;5139290;27;20382;-48
2021/08/04 09:18:02;;;;;;;6.78;3.10;;;31.90;60.40;;;;;;5139654;27;20477;-50
2021/08/04 09:20:29;;;;;;;8.18;3.38;;;32.20;59.40;;;;;;5095502;27;20124;-47
2021/08/04 09:23:00;;;;;;;4.78;2.80;;;31.80;57.90;;;;;;5135216;27;20155;-48
2021/08/04 09:25:26;;;;;;;4.67;3.33;;;32.00;58.20;;;;;;5131265;27;20027;-48
2021/08/04 09:27:58;;;;;;;6.03;3.20;;;31.70;58.40;;;;;;5062719;27;20278;-50
2021/08/04 09:30:26;;;;;;;7.18;3.50;;;31.90;58.20;;;;;;5122903;27;20450;-48
2021/08/04 09:33:17;;;;;;;5.18;3.20;;;32.00;59.30;;;;;;5120983;27;20473;-49
2021/08/04 09:35:51;;;;;;;5.00;3.03;;;32.00;59.40;;;;;;5135031;27;20054;-51
2021/08/04 09:38:18;;;;;;;5.55;3.15;;;31.90;57.40;;;;;;5135204;27;20462;-50
2021/08/04 09:40:45;;;;;;;4.97;2.75;;;32.20;57.60;;;;;;5132006;27;20035;-49
2021/08/04 09:43:24;;;;;;;6.75;3.00;;;32.60;57.30;;;;;;5114617;28;20043;-51
2021/08/04 09:45:52;;;;;;;5.47;3.00;;;32.90;56.30;;;;;;5113453;28;20084;-49
2021/08/04 09:48:25;;;;;;;7.90;3.30;;;33.00;56.10;;;;;;5058210;28;20047;-50
2021/08/04 09:50:57;;;;;;;8.05;3.20;;;33.10;56.60;;;;;;5034503;28;20392;-50
2021/08/04 09:53:29;;;;;;;;;;;33.00;55.90;;;;;;5052016;28;20045;-48
2021/08/04 09:56:10;;;;;;;5.63;3.30;;;33.10;57.20;;;;;;5051429;28;19923;-50
2021/08/04 09:58:41;;;;;;;7.25;2.70;;;33.30;55.90;;;;;;5018258;28;20055;-47
2021/08/04 10:01:08;;;;;;;8.52;2.95;;;33.60;54.50;;;;;;5018035;28;20052;-50
2021/08/04 10:03:34;;;;;;;6.25;2.80;;;33.70;54.10;;;;;;5051438;28;20033;-50
2021/08/04 10:06:00;;;;;;;6.97;3.08;;;33.70;54.00;;;;;;5051668;28;20123;-49
2021/08/04 10:08:26;;;;;;;9.27;3.17;;;33.80;55.30;;;;;;5034544;28;20083;-48
2021/08/04 10:10:54;;;;;;;6.20;2.92;;;33.80;54.60;;;;;;5034192;28;20045;-48
2021/08/04 10:13:31;;;;;;;5.50;2.60;;;34.00;53.30;;;;;;5051480;28;20037;-49
2021/08/04 10:15:59;;;;;;;3.92;2.90;;;34.00;53.50;;;;;;5061318;28;20473;-50
2021/08/04 10:18:30;;;;;;;5.57;2.80;;;34.30;52.60;;;;;;5071076;28;20046;-50
2021/08/04 10:21:01;;;;;;;3.42;2.28;;;34.40;56.90;;;;;;5076525;28;20080;-50
2021/08/04 10:23:32;;;;;;;4.60;2.90;;;34.50;53.50;;;;;;5083800;28;20040;-52
2021/08/04 10:25:59;;;;;;;5.65;3.10;;;34.70;53.80;;;;;;5093197;28;20413;-45
2021/08/04 10:28:26;;;;;;;5.05;3.20;;;35.00;54.00;;;;;;5030168;28;20052;-51
2021/08/04 10:30:53;;;;;;;6.47;3.08;;;;;;;;;;5040440;28;20045;-52
2021/08/04 10:33:19;;;;;;;7.40;2.95;;;;;;;;;;5051100;28;20083;-48
2021/08/04 10:35:51;;;;;;;5.88;3.03;;;;;;;;;;5051007;28;20524;-50
2021/08/04 10:38:19;;;;;;;4.22;2.58;;;;;;;;;;5017734;28;20045;-50
2021/08/04 10:40:46;;;;;;;5.32;2.80;;;;;;;;;;5050600;28;20401;-51
2021/08/04 10:43:32;;;;;;;11.05;2.90;;;;;;;;;;5051133;28;20076;-50
2021/08/04 10:45:58;;;;;;;12.32;3.53;;;36.00;51.00;;;;;;4972194;28;20050;-52
2021/08/04 10:48:25;;;;;;;3.72;2.03;;;;;;;;;;4972166;28;20047;-50
2021/08/04 10:51:13;;;;;;;4.45;2.08;;;35.60;84.10;;;;;;4972195;28;20057;-48
2021/08/04 10:54:01;;;;;;;5.90;2.22;;;36.00;67.30;;;;;;4972193;28;20043;-52
2021/08/04 10:56:32;;;;;;;3.50;2.20;;;;;;;;;;4939915;28;20047;-51
2021/08/04 10:59:10;;;;;;;3.67;2.40;;;;;;;;;;4991046;28;20084;-49
2021/08/04 11:02:03;;;;;;;4.45;2.45;;;36.80;63.40;;;;;;5030637;28;20041;-51
2021/08/04 11:04:29;;;;;;;5.70;2.42;;;36.90;52.60;;;;;;5006539;28;20061;-50
2021/08/04 11:07:17;;;;;;;4.68;2.22;;;36.70;51.20;;;;;;5030893;28;20044;-51
2021/08/04 11:09:47;;;;;;;5.15;2.30;;;36.80;53.60;;;;;;5030693;28;20041;-53
2021/08/04 11:12:13;;;;;;;5.95;2.17;;;;;;;;;;5031001;28;20076;-52
2021/08/04 11:14:46;;;;;;;5.22;2.00;;;37.10;46.70;;;;;;5014244;28;20045;-51
2021/08/04 11:17:24;;;;;;;2.70;2.03;;;37.30;46.90;;;;;;5031912;28;20049;-58
2021/08/04 11:22:25;;;;;;;3.97;1.98;;;37.00;46.10;;;;;;5048286;28;20042;-49
2021/08/04 11:24:58;;;;;;;9.05;3.40;;;37.20;46.50;;;;;;5101683;28;20105;-58
2021/08/04 11:27:26;;;;;;;5.22;2.22;;;37.30;47.00;;;;;;5116744;28;20032;-51
2021/08/04 11:29:54;;;;;;;3.35;2.30;;;37.10;46.90;;;;;;5116514;28;20050;-49
2021/08/04 11:32:25;;;;;;;6.13;2.03;;;36.80;46.60;;;;;;5106041;28;20183;-52
2021/08/04 11:34:51;;;;;;;5.20;2.10;;;37.00;45.90;;;;;;5096407;28;20064;-51
2021/08/04 11:37:18;;;;;;;4.68;2.00;;;37.00;46.20;;;;;;5096590;28;20276;-52
2021/08/04 11:39:58;;;;;;;3.05;2.35;;;37.00;47.30;;;;;;5096015;28;20111;-51
2021/08/04 11:42:25;;;;;;;4.82;2.15;;;37.20;46.50;;;;;;5094263;28;20088;-53
2021/08/04 11:44:51;;;;;;;5.60;2.20;;;;;;;;;;5103931;28;20089;-46
2021/08/04 11:47:17;;;;;;;3.63;2.25;;;;;;;;;;5116259;28;20032;-58
2021/08/04 11:49:46;;;;;;;4.10;1.90;;;;;;;;;;5116640;28;20042;-51
2021/08/04 11:52:30;;;;;;;4.55;2.00;;;;;;;;;;5116404;28;20128;-50
2021/08/04 11:54:57;;;;;;;4.28;2.28;;;;;;;;;;5116537;28;20467;-53
2021/08/04 11:57:27;;;;;;;3.35;2.05;;;;;;;;;;5116102;28;20031;-51
2021/08/04 11:59:58;;;;;;;3.88;2.35;;;;;;;;;;5096081;28;20039;-48
2021/08/04 12:02:25;;;;;;;4.85;2.05;;;37.90;45.70;;;;;;5101409;28;20027;-51
2021/08/04 12:04:52;;;;;;;4.65;3.15;;;38.00;46.30;;;;;;5116713;28;20389;-51
2021/08/04 12:07:22;;;;;;;3.55;2.08;;;37.80;45.40;;;;;;5116661;28;20027;-51
2021/08/04 12:09:49;;;;;;;2.45;1.77;;;37.00;44.90;;;;;;5116645;28;20035;-51
2021/08/04 12:12:24;;;;;;;4.32;2.00;;;37.40;45.30;;;;;;5114154;28;20512;-51
2021/08/04 12:14:52;;;;;;;4.18;1.95;;;37.70;45.50;;;;;;5116084;28;20036;-52
2021/08/04 12:17:23;;;;;;;5.50;2.40;;;37.80;45.40;;;;;;5116181;28;20031;-52
2021/08/04 12:19:50;;;;;;;4.25;2.50;;;37.70;46.50;;;;;;5097135;28;20062;-51
2021/08/04 12:22:19;;;;;;;3.53;2.15;;;37.60;44.90;;;;;;5116327;28;20081;-51
2021/08/04 12:24:47;;;;;;;4.60;2.45;;;;;;;;;;5112259;28;20558;-52
2021/08/04 12:27:13;;;;;;;5.18;2.30;;;38.30;45.00;;;;;;5111695;28;20069;-51
2021/08/04 12:29:40;;;;;;;5.18;2.30;;;38.30;45.60;;;;;;5115816;28;20042;-52
2021/08/04 12:32:27;;;;;;;4.22;2.63;;;38.80;46.20;;;;;;5113336;28;20383;-52
2021/08/04 12:34:59;;;;;;;3.95;2.00;;;38.40;44.80;;;;;;5095340;28;20032;-52
2021/08/04 12:37:27;;;;;;;2.80;2.00;;;37.80;45.60;;;;;;5114780;28;20428;-52
2021/08/04 12:40:02;;;;;;;3.78;2.30;;;37.90;46.10;;;;;;5114697;28;20126;-52
2021/08/04 12:42:27;;;;;;;5.40;2.13;;;38.00;44.50;;;;;;5114269;28;20047;-52
2021/08/04 12:45:17;;;;;;;4.78;2.28;;;37.90;44.80;;;;;;5095159;28;20073;-52
2021/08/04 12:47:56;;;;;;;3.83;2.40;;;38.00;46.00;;;;;;5130837;27;20030;-52
2021/08/04 12:50:24;;;;;;;7.22;2.55;;;37.90;45.60;;;;;;5098421;27;20083;-51
2021/08/04 12:52:50;;;;;;;4.15;2.20;;;37.70;46.10;;;;;;5134822;27;20027;-51
2021/08/04 12:55:17;;;;;;;4.88;2.65;;;37.40;45.80;;;;;;5134828;27;20391;-52
2021/08/04 12:57:43;;;;;;;4.78;2.50;;;37.60;45.20;;;;;;5133979;27;20122;-52
2021/08/04 13:00:36;;;;;;;5.63;2.35;;;37.50;45.80;;;;;;5098289;27;20435;-52
2021/08/04 13:03:03;;;;;;;4.45;2.15;;;37.30;46.20;;;;;;5099638;27;20063;-52
2021/08/04 13:05:30;;;;;;;5.18;2.38;;;37.40;44.80;;;;;;5135869;27;20131;-53
2021/08/04 13:07:55;;;;;;;4.25;2.20;;;37.50;45.70;;;;;;5135097;27;20051;-51
2021/08/04 13:10:39;;;;;;;3.78;2.30;;;37.10;46.40;;;;;;5135052;27;20062;-52
2021/08/04 13:13:06;;;;;;;4.20;2.00;;;37.20;47.00;;;;;;5135716;27;20035;-52
2021/08/04 13:15:52;;;;;;;4.53;2.28;;;37.60;45.70;;;;;;5099322;27;20028;-51
2021/08/04 13:18:19;;;;;;;6.00;2.42;;;37.50;45.70;;;;;;5135443;27;20031;-52
2021/08/04 13:20:45;;;;;;;3.35;2.25;;;37.30;46.40;;;;;;5132773;27;20031;-52
2021/08/04 13:23:17;;;;;;;5.07;2.13;;;37.30;45.70;;;;;;5082303;27;20485;-52
2021/08/04 13:25:46;;;;;;;7.40;2.30;;;37.40;46.20;;;;;;5134265;27;20454;-54
2021/08/04 13:28:21;;;;;;;5.13;2.40;;;37.40;50.20;;;;;;5135245;27;20049;-52
2021/08/04 13:30:49;;;;;;;3.53;2.15;;;37.40;49.60;;;;;;5115692;27;20054;-52
2021/08/04 13:33:18;;;;;;;5.45;2.40;;;37.00;49.00;;;;;;5135508;27;20033;-54
2021/08/04 13:35:49;;;;;;;3.65;2.65;;;37.20;50.10;;;;;;5135255;27;20033;-53